createdAt,value
2022-12-08T00:00:05.926Z,100904.50
2022-12-08T00:00:43.360Z,100900.38
2022-12-08T00:01:17.329Z,100900.06
2022-12-08T00:01:49.068Z,100904.50
2022-12-08T00:02:21.092Z,100902.63
2022-12-08T00:02:53.148Z,100899.84
2022-12-08T00:03:25.311Z,100898.38
2022-12-08T00:03:59.029Z,100890.50
2022-12-08T00:04:50.545Z,100899.19
2022-12-08T00:05:40.329Z,100898.06
2022-12-08T00:06:56.079Z,100900.22
2022-12-08T00:07:46.224Z,100894.00
2022-12-08T00:08:36.121Z,100894.09
2022-12-08T00:09:21.994Z,100890.19
2022-12-08T00:09:53.464Z,100885.97
2022-12-08T00:10:48.519Z,100887.63
2022-12-08T00:11:17.203Z,100892.50
2022-12-08T00:11:57.522Z,100882.69
2022-12-08T00:12:28.973Z,100883.50
2022-12-08T00:13:00.433Z,100884.19
2022-12-08T00:13:32.000Z,100882.16
2022-12-08T00:14:03.574Z,100882.31
2022-12-08T00:14:37.591Z,100879.41
2022-12-08T00:15:09.411Z,100883.34
2022-12-08T00:15:40.924Z,100881.75
2022-12-08T00:16:12.573Z,100884.53
2022-12-08T00:16:44.184Z,100880.72
2022-12-08T00:17:16.629Z,100881.03
2022-12-08T00:17:48.132Z,100888.75
2022-12-08T00:18:19.626Z,100881.03
2022-12-08T00:18:51.096Z,100878.41
2022-12-08T00:19:23.417Z,100881.66
2022-12-08T00:19:54.869Z,100882.25
2022-12-08T00:20:26.365Z,100875.06
2022-12-08T00:20:58.621Z,100877.00
2022-12-08T00:21:30.103Z,100874.38
2022-12-08T00:22:01.974Z,100876.19
2022-12-08T00:22:33.483Z,100877.16
2022-12-08T00:23:04.976Z,100871.09
2022-12-08T00:23:36.477Z,100869.28
2022-12-08T00:24:08.250Z,100870.09
2022-12-08T00:24:40.971Z,100875.34
2022-12-08T00:25:12.595Z,100866.00
2022-12-08T00:25:44.069Z,100868.78
2022-12-08T00:26:15.548Z,100867.22
2022-12-08T00:26:47.285Z,100868.03
2022-12-08T00:27:18.779Z,100864.88
2022-12-08T00:27:50.282Z,100861.25
2022-12-08T00:28:22.010Z,100866.22
2022-12-08T00:28:53.479Z,100867.88
2022-12-08T00:29:25.718Z,100863.75
2022-12-08T00:29:57.218Z,100864.03
2022-12-08T00:30:28.760Z,100862.63
2022-12-08T00:31:00.916Z,100858.28
2022-12-08T00:31:32.546Z,100853.56
2022-12-08T00:32:04.743Z,100859.94
2022-12-08T00:32:37.647Z,100857.00
2022-12-08T00:33:10.111Z,100851.91
2022-12-08T00:33:41.571Z,100852.72
2022-12-08T00:34:14.280Z,100852.47
2022-12-08T00:34:45.724Z,100853.72
2022-12-08T00:35:17.186Z,100857.16
2022-12-08T00:35:48.737Z,100854.53
2022-12-08T00:36:20.438Z,100857.53
2022-12-08T00:36:51.951Z,100852.97
2022-12-08T00:37:23.511Z,100856.41
2022-12-08T00:38:00.449Z,100848.69
2022-12-08T00:38:32.489Z,100847.56
2022-12-08T00:39:04.133Z,100851.16
2022-12-08T00:39:35.629Z,100852.66
2022-12-08T00:40:07.890Z,100861.66
2022-12-08T00:40:44.451Z,100843.00
2022-12-08T00:41:18.022Z,100848.25
2022-12-08T00:42:09.259Z,100847.41
2022-12-08T00:42:40.769Z,100848.28
2022-12-08T00:43:12.892Z,100847.81
2022-12-08T00:43:44.630Z,100848.63
2022-12-08T00:44:18.899Z,100847.31
2022-12-08T00:44:51.147Z,100842.88
2022-12-08T00:45:22.947Z,100832.56
2022-12-08T00:45:54.507Z,100841.25
2022-12-08T00:46:26.022Z,100835.47
2022-12-08T00:46:57.607Z,100837.34
2022-12-08T00:47:29.107Z,100832.25
2022-12-08T00:48:00.626Z,100838.47
2022-12-08T00:48:32.260Z,100834.88
2022-12-08T00:49:05.315Z,100832.91
2022-12-08T00:49:36.888Z,100837.84
2022-12-08T00:50:08.929Z,100834.25
2022-12-08T00:50:40.401Z,100837.00
2022-12-08T00:51:11.851Z,100832.28
2022-12-08T00:51:43.893Z,100842.78
2022-12-08T00:52:15.376Z,100837.41
2022-12-08T00:52:46.893Z,100842.78
2022-12-08T00:53:18.519Z,100834.78
2022-12-08T00:53:50.075Z,100843.81
2022-12-08T00:54:23.045Z,100836.31
2022-12-08T00:54:54.589Z,100837.44
2022-12-08T00:55:26.611Z,100843.50
2022-12-08T00:55:58.243Z,100843.81
2022-12-08T00:56:29.996Z,100840.53
2022-12-08T00:57:01.533Z,100839.09
2022-12-08T00:57:33.008Z,100842.69
2022-12-08T00:58:04.533Z,100847.13
2022-12-08T00:58:36.011Z,100846.13
2022-12-08T00:59:07.752Z,100845.31
2022-12-08T00:59:39.896Z,100846.81
2022-12-08T01:00:11.998Z,100833.38
2022-12-08T01:00:44.006Z,100847.47
2022-12-08T01:01:15.690Z,100836.31
2022-12-08T01:01:47.534Z,100845.53
2022-12-08T01:02:19.077Z,100842.25
2022-12-08T01:02:50.639Z,100845.03
2022-12-08T01:03:22.304Z,100836.41
2022-12-08T01:03:54.071Z,100840.28
2022-12-08T01:04:25.580Z,100831.16
2022-12-08T01:04:57.228Z,100842.47
2022-12-08T01:05:28.684Z,100839.69
2022-12-08T01:06:03.733Z,100845.91
2022-12-08T01:06:36.140Z,100842.97
2022-12-08T01:07:07.914Z,100834.16
2022-12-08T01:07:39.437Z,100834.16
2022-12-08T01:08:11.028Z,100829.38
2022-12-08T01:08:42.965Z,100832.66
2022-12-08T01:09:15.474Z,100831.34
2022-12-08T01:09:47.199Z,100833.16
2022-12-08T01:10:18.689Z,100832.16
2022-12-08T01:10:50.206Z,100828.88
2022-12-08T01:11:21.653Z,100826.91
2022-12-08T01:11:53.302Z,100827.22
2022-12-08T01:12:25.089Z,100823.63
2022-12-08T01:12:57.166Z,100819.53
2022-12-08T01:13:28.653Z,100821.47
2022-12-08T01:14:00.189Z,100820.94
2022-12-08T01:14:31.641Z,100819.81
2022-12-08T01:15:03.908Z,100821.47
2022-12-08T01:15:35.496Z,100821.59
2022-12-08T01:16:07.698Z,100822.59
2022-12-08T01:16:41.435Z,100822.59
2022-12-08T01:17:13.150Z,100818.47
2022-12-08T01:17:44.690Z,100817.34
2022-12-08T01:18:16.148Z,100817.34
2022-12-08T01:18:47.682Z,100820.13
2022-12-08T01:19:19.252Z,100817.66
2022-12-08T01:19:51.221Z,100822.59
2022-12-08T01:20:22.748Z,100811.81
2022-12-08T01:20:54.249Z,100818.97
2022-12-08T01:21:26.646Z,100816.75
2022-12-08T01:21:59.518Z,100815.09
2022-12-08T01:22:31.072Z,100812.63
2022-12-08T01:23:02.621Z,100815.09
2022-12-08T01:23:34.850Z,100812.91
2022-12-08T01:24:06.670Z,100820.66
2022-12-08T01:24:38.164Z,100813.13
2022-12-08T01:25:10.337Z,100822.97
2022-12-08T01:25:41.844Z,100820.84
2022-12-08T01:26:14.894Z,100821.16
2022-12-08T01:26:46.953Z,100817.06
2022-12-08T01:27:18.427Z,100817.06
2022-12-08T01:27:52.340Z,100818.41
2022-12-08T01:28:23.833Z,100820.94
2022-12-08T01:28:55.509Z,100818.69
2022-12-08T01:29:27.744Z,100822.97
2022-12-08T01:29:59.250Z,100814.78
2022-12-08T01:30:30.942Z,100819.03
2022-12-08T01:31:02.737Z,100823.16
2022-12-08T01:31:34.405Z,100818.06
2022-12-08T01:32:05.969Z,100815.75
2022-12-08T01:32:37.730Z,100820.03
2022-12-08T01:33:09.181Z,100813.63
2022-12-08T01:33:41.185Z,100820.69
2022-12-08T01:34:12.788Z,100818.88
2022-12-08T01:34:44.282Z,100824.63
2022-12-08T01:35:15.823Z,100814.97
2022-12-08T01:35:47.279Z,100816.28
2022-12-08T01:36:27.279Z,100813.00
2022-12-08T01:36:58.754Z,100815.63
2022-12-08T01:37:30.252Z,100820.72
2022-12-08T01:38:01.910Z,100812.19
2022-12-08T01:38:33.581Z,100812.00
2022-12-08T01:39:07.580Z,100819.47
2022-12-08T01:39:41.156Z,100813.19
2022-12-08T01:40:12.684Z,100816.16
2022-12-08T01:40:44.445Z,100814.81
2022-12-08T01:41:17.886Z,100806.59
2022-12-08T01:41:50.164Z,100812.34
2022-12-08T01:42:22.978Z,100812.53
2022-12-08T01:42:54.463Z,100811.53
2022-12-08T01:43:25.992Z,100809.06
2022-12-08T01:44:04.522Z,100807.78
2022-12-08T01:44:36.160Z,100806.78
2022-12-08T01:45:15.507Z,100812.84
2022-12-08T01:45:47.374Z,100807.59
2022-12-08T01:46:19.131Z,100810.72
2022-12-08T01:46:52.702Z,100812.34
2022-12-08T01:47:28.962Z,100814.66
2022-12-08T01:48:03.568Z,100808.25
2022-12-08T01:48:35.384Z,100809.38
2022-12-08T01:49:26.311Z,100805.97
2022-12-08T01:49:58.074Z,100817.81
2022-12-08T01:50:30.191Z,100814.34
2022-12-08T01:51:01.855Z,100805.34
2022-12-08T01:51:38.339Z,100808.97
2022-12-08T01:52:16.088Z,100808.97
2022-12-08T01:52:51.896Z,100809.63
2022-12-08T01:53:26.907Z,100807.00
2022-12-08T01:53:58.410Z,100806.34
2022-12-08T01:54:34.842Z,100811.94
2022-12-08T01:55:10.809Z,100803.06
2022-12-08T01:55:48.647Z,100804.06
2022-12-08T01:56:27.505Z,100806.03
2022-12-08T01:57:03.577Z,100799.13
2022-12-08T01:57:40.096Z,100801.75
2022-12-08T01:58:15.905Z,100798.81
2022-12-08T01:58:50.139Z,100796.69
2022-12-08T01:59:22.314Z,100796.03
2022-12-08T02:00:04.454Z,100795.53
2022-12-08T02:00:38.252Z,100803.75
2022-12-08T02:01:10.797Z,100786.50
2022-12-08T02:01:42.458Z,100785.22
2022-12-08T02:02:14.132Z,100784.56
2022-12-08T02:02:51.432Z,100795.06
2022-12-08T02:03:45.506Z,100797.69
2022-12-08T02:04:17.218Z,100792.91
2022-12-08T02:04:48.693Z,100788.00
2022-12-08T02:05:22.574Z,100790.13
2022-12-08T02:05:54.113Z,100789.31
2022-12-08T02:06:27.953Z,100785.41
2022-12-08T02:07:03.626Z,100791.97
2022-12-08T02:07:38.053Z,100792.25
2022-12-08T02:08:11.449Z,100787.34
2022-12-08T02:08:43.610Z,100788.16
2022-12-08T02:09:15.508Z,100788.31
2022-12-08T02:09:47.107Z,100789.13
2022-12-08T02:10:21.715Z,100791.59
2022-12-08T02:10:53.401Z,100787.66
2022-12-08T02:11:24.952Z,100788.16
2022-12-08T02:11:58.038Z,100788.69
2022-12-08T02:12:29.809Z,100786.34
2022-12-08T02:13:02.057Z,100782.28
2022-12-08T02:13:33.592Z,100790.47
2022-12-08T02:14:08.297Z,100794.22
2022-12-08T02:14:40.046Z,100790.13
2022-12-08T02:15:11.709Z,100784.88
2022-12-08T02:15:55.018Z,100790.63
2022-12-08T02:16:35.233Z,100789.31
2022-12-08T02:17:25.087Z,100782.75
2022-12-08T02:18:08.459Z,100786.72
2022-12-08T02:18:57.700Z,100786.38
2022-12-08T02:20:08.451Z,100789.34
2022-12-08T02:21:00.585Z,100785.75
2022-12-08T02:21:52.288Z,100782.63
2022-12-08T02:22:44.658Z,100786.06
2022-12-08T02:23:27.418Z,100769.47
2022-12-08T02:24:08.316Z,100777.38
2022-12-08T02:25:01.397Z,100775.06
2022-12-08T02:25:39.759Z,100777.19
2022-12-08T02:26:19.235Z,100778.03
2022-12-08T02:27:11.584Z,100771.13
2022-12-08T02:28:16.304Z,100768.34
2022-12-08T02:29:19.854Z,100768.34
2022-12-08T02:30:24.808Z,100764.41
2022-12-08T02:31:11.857Z,100764.38
2022-12-08T02:32:15.642Z,100766.53
2022-12-08T02:33:10.677Z,100765.72
2022-12-08T02:33:54.329Z,100761.44
2022-12-08T02:34:41.064Z,100761.44
2022-12-08T02:35:36.613Z,100759.13
2022-12-08T02:36:27.297Z,100753.22
2022-12-08T02:37:38.009Z,100765.38
2022-12-08T02:38:21.660Z,100761.59
2022-12-08T02:39:20.964Z,100760.44
2022-12-08T02:40:13.611Z,100761.28
2022-12-08T02:40:53.088Z,100758.16
2022-12-08T02:41:56.841Z,100753.22
2022-12-08T02:42:34.958Z,100753.56
2022-12-08T02:43:14.613Z,100759.13
2022-12-08T02:43:57.339Z,100753.22
2022-12-08T02:44:43.833Z,100755.19
2022-12-08T02:45:22.451Z,100751.91
2022-12-08T02:45:58.962Z,100760.44
2022-12-08T02:46:37.435Z,100756.19
2022-12-08T02:47:12.822Z,100746.66
2022-12-08T02:47:45.009Z,100748.78
2022-12-08T02:48:16.575Z,100746.97
2022-12-08T02:48:48.529Z,100754.69
2022-12-08T02:49:20.032Z,100752.91
2022-12-08T02:49:52.289Z,100753.56
2022-12-08T02:50:23.780Z,100750.91
2022-12-08T02:50:55.709Z,100748.97
2022-12-08T02:51:27.179Z,100750.91
2022-12-08T02:52:13.421Z,100755.88
2022-12-08T02:52:46.929Z,100746.34
2022-12-08T02:53:18.440Z,100751.63
2022-12-08T02:53:50.003Z,100746.50
2022-12-08T02:54:21.472Z,100746.69
2022-12-08T02:55:06.962Z,100740.13
2022-12-08T02:55:57.951Z,100742.25
2022-12-08T02:56:52.283Z,100744.06
2022-12-08T02:57:45.229Z,100740.75
2022-12-08T02:58:23.888Z,100740.75
2022-12-08T02:59:12.366Z,100746.34
2022-12-08T03:00:22.186Z,100741.44
2022-12-08T03:01:12.390Z,100745.53
2022-12-08T03:01:51.303Z,100742.06
2022-12-08T03:02:34.755Z,100739.13
2022-12-08T03:03:12.361Z,100743.56
2022-12-08T03:03:52.961Z,100746.34
2022-12-08T03:04:45.158Z,100743.84
2022-12-08T03:05:47.825Z,100740.75
2022-12-08T03:06:28.841Z,100739.75
2022-12-08T03:07:07.380Z,100745.50
2022-12-08T03:07:44.427Z,100744.69
2022-12-08T03:08:36.884Z,100730.88
2022-12-08T03:09:17.099Z,100737.78
2022-12-08T03:09:56.673Z,100735.31
2022-12-08T03:10:46.540Z,100723.16
2022-12-08T03:11:24.806Z,100724.16
2022-12-08T03:12:02.889Z,100728.75
2022-12-08T03:12:40.205Z,100718.25
2022-12-08T03:13:14.156Z,100723.31
2022-12-08T03:13:52.021Z,100725.47
2022-12-08T03:14:24.085Z,100712.16
2022-12-08T03:14:57.524Z,100715.75
2022-12-08T03:15:30.001Z,100714.28
2022-12-08T03:16:01.897Z,100716.75
2022-12-08T03:16:37.494Z,100708.38
2022-12-08T03:17:09.212Z,100709.84
2022-12-08T03:17:44.224Z,100708.22
2022-12-08T03:18:17.626Z,100708.88
2022-12-08T03:18:53.557Z,100713.47
2022-12-08T03:19:28.672Z,100711.84
2022-12-08T03:20:04.364Z,100713.47
2022-12-08T03:20:36.526Z,100713.81
2022-12-08T03:21:09.338Z,100707.41
2022-12-08T03:21:42.367Z,100704.75
2022-12-08T03:22:16.254Z,100712.66
2022-12-08T03:22:48.799Z,100708.56
2022-12-08T03:23:22.018Z,100712.00
2022-12-08T03:23:55.517Z,100708.56
2022-12-08T03:24:27.024Z,100709.53
2022-12-08T03:24:58.929Z,100708.38
2022-12-08T03:25:32.073Z,100706.56
2022-12-08T03:26:18.250Z,100705.28
2022-12-08T03:26:57.084Z,100703.28
2022-12-08T03:27:30.013Z,100700.00
2022-12-08T03:28:01.590Z,100702.47
2022-12-08T03:28:33.403Z,100703.78
2022-12-08T03:29:05.005Z,100704.75
2022-12-08T03:29:36.766Z,100700.66
2022-12-08T03:30:09.337Z,100702.97
2022-12-08T03:30:43.283Z,100702.00
2022-12-08T03:31:16.073Z,100696.72
2022-12-08T03:31:58.161Z,100700.66
2022-12-08T03:32:40.831Z,100695.91
2022-12-08T03:33:19.099Z,100699.53
2022-12-08T03:33:52.153Z,100697.06
2022-12-08T03:34:26.496Z,100693.13
2022-12-08T03:35:00.127Z,100689.84
2022-12-08T03:35:34.140Z,100700.69
2022-12-08T03:36:08.073Z,100691.66
2022-12-08T03:36:39.817Z,100691.13
2022-12-08T03:37:11.598Z,100692.78
2022-12-08T03:37:43.676Z,100690.31
2022-12-08T03:38:16.676Z,100689.19
2022-12-08T03:38:52.941Z,100695.09
2022-12-08T03:39:24.420Z,100689.19
2022-12-08T03:39:56.553Z,100691.47
2022-12-08T03:40:28.015Z,100684.91
2022-12-08T03:41:18.088Z,100689.00
2022-12-08T03:41:49.601Z,100689.34
2022-12-08T03:42:21.075Z,100687.38
2022-12-08T03:42:52.705Z,100687.53
2022-12-08T03:43:24.158Z,100681.13
2022-12-08T03:44:01.082Z,100688.19
2022-12-08T03:44:32.546Z,100682.13
2022-12-08T03:45:04.961Z,100681.63
2022-12-08T03:45:36.585Z,100686.56
2022-12-08T03:46:08.057Z,100682.13
2022-12-08T03:46:39.596Z,100680.97
2022-12-08T03:47:11.180Z,100684.91
2022-12-08T03:47:42.641Z,100676.88
2022-12-08T03:48:14.294Z,100683.28
2022-12-08T03:48:45.844Z,100679.66
2022-12-08T03:49:17.310Z,100682.28
2022-12-08T03:49:48.776Z,100680.00
2022-12-08T03:50:20.294Z,100677.38
2022-12-08T03:50:51.796Z,100676.38
2022-12-08T03:51:24.456Z,100674.06
2022-12-08T03:51:55.993Z,100676.34
2022-12-08T03:52:27.564Z,100675.53
2022-12-08T03:52:59.049Z,100677.03
2022-12-08T03:53:30.542Z,100671.59
2022-12-08T03:54:02.153Z,100678.03
2022-12-08T03:54:33.653Z,100676.38
2022-12-08T03:55:05.620Z,100677.69
2022-12-08T03:55:37.080Z,100675.38
2022-12-08T03:56:27.004Z,100680.97
2022-12-08T03:56:58.441Z,100673.25
2022-12-08T03:57:29.928Z,100675.72
2022-12-08T03:58:01.401Z,100674.41
2022-12-08T03:58:37.267Z,100685.41
2022-12-08T03:59:10.562Z,100682.59
2022-12-08T03:59:42.029Z,100679.00
2022-12-08T04:00:15.919Z,100677.34
2022-12-08T04:00:47.381Z,100669.63
2022-12-08T04:01:18.882Z,100671.78
2022-12-08T04:01:50.592Z,100674.06
2022-12-08T04:02:22.432Z,100671.44
2022-12-08T04:02:54.241Z,100673.59
2022-12-08T04:03:25.912Z,100673.75
2022-12-08T04:03:57.448Z,100669.16
2022-12-08T04:04:29.036Z,100674.06
2022-12-08T04:05:00.489Z,100668.00
2022-12-08T04:05:32.049Z,100669.97
2022-12-08T04:06:03.659Z,100664.84
2022-12-08T04:06:35.229Z,100668.13
2022-12-08T04:07:06.698Z,100665.69
2022-12-08T04:07:38.245Z,100666.19
2022-12-08T04:08:09.862Z,100661.91
2022-12-08T04:08:41.414Z,100664.38
2022-12-08T04:09:13.103Z,100667.50
2022-12-08T04:09:45.462Z,100666.00
2022-12-08T04:10:16.959Z,100666.16
2022-12-08T04:10:48.477Z,100662.06
2022-12-08T04:11:20.401Z,100668.13
2022-12-08T04:11:51.860Z,100667.16
2022-12-08T04:12:23.555Z,100660.25
2022-12-08T04:12:56.487Z,100657.31
2022-12-08T04:13:28.144Z,100663.22
2022-12-08T04:13:59.742Z,100662.06
2022-12-08T04:14:31.209Z,100665.34
2022-12-08T04:15:02.885Z,100659.25
2022-12-08T04:15:34.384Z,100661.25
2022-12-08T04:16:06.603Z,100662.22
2022-12-08T04:16:38.245Z,100658.78
2022-12-08T04:17:09.748Z,100658.78
2022-12-08T04:17:41.205Z,100662.06
2022-12-08T04:18:13.294Z,100660.25
2022-12-08T04:18:45.148Z,100661.88
2022-12-08T04:19:16.704Z,100663.22
2022-12-08T04:19:48.151Z,100667.16
2022-12-08T04:20:19.618Z,100657.78
2022-12-08T04:20:51.240Z,100659.91
2022-12-08T04:21:22.835Z,100659.75
2022-12-08T04:21:54.462Z,100660.91
2022-12-08T04:22:25.962Z,100661.38
2022-12-08T04:22:57.640Z,100667.81
2022-12-08T04:23:29.263Z,100662.53
2022-12-08T04:24:01.522Z,100664.84
2022-12-08T04:24:33.151Z,100662.38
2022-12-08T04:25:05.120Z,100656.28
2022-12-08T04:25:37.181Z,100657.13
2022-12-08T04:26:09.166Z,100660.91
2022-12-08T04:26:40.669Z,100659.91
2022-12-08T04:27:12.177Z,100657.47
2022-12-08T04:27:43.645Z,100659.91
2022-12-08T04:28:15.185Z,100654.97
2022-12-08T04:28:46.698Z,100658.59
2022-12-08T04:29:18.376Z,100661.91
2022-12-08T04:29:49.849Z,100655.31
2022-12-08T04:30:21.428Z,100653.66
2022-12-08T04:30:52.957Z,100660.09
2022-12-08T04:31:24.632Z,100658.41
2022-12-08T04:31:56.272Z,100658.28
2022-12-08T04:32:27.953Z,100661.72
2022-12-08T04:32:59.432Z,100657.13
2022-12-08T04:33:30.963Z,100652.34
2022-12-08T04:34:02.461Z,100660.91
2022-12-08T04:34:33.982Z,100657.59
2022-12-08T04:35:05.801Z,100658.75
2022-12-08T04:35:37.294Z,100650.53
2022-12-08T04:36:09.228Z,100648.41
2022-12-08T04:36:40.678Z,100656.31
2022-12-08T04:37:12.655Z,100649.41
2022-12-08T04:37:44.560Z,100649.38
2022-12-08T04:38:16.185Z,100651.88
2022-12-08T04:38:47.692Z,100650.38
2022-12-08T04:39:19.143Z,100655.31
2022-12-08T04:39:50.608Z,100659.25
2022-12-08T04:40:22.115Z,100653.66
2022-12-08T04:40:53.614Z,100653.16
2022-12-08T04:41:25.078Z,100638.88
2022-12-08T04:41:56.712Z,100647.75
2022-12-08T04:42:28.294Z,100652.03
2022-12-08T04:42:59.889Z,100634.75
2022-12-08T04:43:31.374Z,100642.50
2022-12-08T04:44:02.850Z,100639.06
2022-12-08T04:44:34.333Z,100645.28
2022-12-08T04:45:06.758Z,100642.00
2022-12-08T04:45:42.024Z,100642.16
2022-12-08T04:46:13.684Z,100642.16
2022-12-08T04:46:45.293Z,100640.34
2022-12-08T04:47:17.005Z,100637.56
2022-12-08T04:47:48.484Z,100641.81
2022-12-08T04:48:20.043Z,100646.13
2022-12-08T04:48:51.511Z,100646.13
2022-12-08T04:49:23.597Z,100635.28
2022-12-08T04:49:55.748Z,100642.81
2022-12-08T04:50:27.745Z,100634.63
2022-12-08T04:50:59.194Z,100644.78
2022-12-08T04:51:30.797Z,100632.31
2022-12-08T04:52:02.367Z,100634.28
2022-12-08T04:52:34.140Z,100634.94
2022-12-08T04:53:05.666Z,100640.34
2022-12-08T04:53:39.913Z,100639.53
2022-12-08T04:54:13.525Z,100642.16
2022-12-08T04:54:44.993Z,100643.50
2022-12-08T04:55:16.663Z,100635.75
2022-12-08T04:55:49.628Z,100634.09
2022-12-08T04:56:21.201Z,100631.47
2022-12-08T04:56:52.810Z,100638.25
2022-12-08T04:57:24.333Z,100630.50
2022-12-08T04:57:55.871Z,100633.63
2022-12-08T04:58:27.390Z,100637.91
2022-12-08T04:58:59.408Z,100629.19
2022-12-08T04:59:30.984Z,100635.44
2022-12-08T05:00:03.949Z,100634.28
2022-12-08T05:00:35.658Z,100637.38
2022-12-08T05:01:07.328Z,100635.59
2022-12-08T05:01:39.092Z,100647.09
2022-12-08T05:02:10.978Z,100632.31
2022-12-08T05:02:42.834Z,100637.25
2022-12-08T05:03:15.102Z,100638.72
2022-12-08T05:03:46.533Z,100634.28
2022-12-08T05:04:18.173Z,100635.75
2022-12-08T05:04:49.650Z,100635.75
2022-12-08T05:05:21.185Z,100632.31
2022-12-08T05:05:52.726Z,100640.53
2022-12-08T05:06:24.498Z,100635.59
2022-12-08T05:06:56.066Z,100647.09
2022-12-08T05:07:27.757Z,100642.81
2022-12-08T05:07:59.289Z,100643.81
2022-12-08T05:08:31.240Z,100643.63
2022-12-08T05:09:02.823Z,100641.19
2022-12-08T05:09:34.381Z,100635.75
2022-12-08T05:10:07.015Z,100632.31
2022-12-08T05:10:38.942Z,100638.88
2022-12-08T05:11:11.580Z,100630.66
2022-12-08T05:11:48.504Z,100646.44
2022-12-08T05:12:20.751Z,100643.63
2022-12-08T05:12:52.329Z,100634.09
2022-12-08T05:13:23.823Z,100639.53
2022-12-08T05:13:55.318Z,100639.53
2022-12-08T05:14:26.817Z,100633.28
2022-12-08T05:14:58.304Z,100642.81
2022-12-08T05:15:29.765Z,100641.81
2022-12-08T05:16:08.649Z,100635.59
2022-12-08T05:16:40.215Z,100647.09
2022-12-08T05:17:11.871Z,100637.25
2022-12-08T05:17:43.581Z,100639.19
2022-12-08T05:18:15.803Z,100642.16
2022-12-08T05:18:47.323Z,100630.00
2022-12-08T05:19:18.901Z,100630.00
2022-12-08T05:19:50.439Z,100639.72
2022-12-08T05:20:22.286Z,100640.53
2022-12-08T05:20:53.736Z,100629.66
2022-12-08T05:21:25.226Z,100640.19
2022-12-08T05:21:56.697Z,100633.28
2022-12-08T05:22:28.168Z,100638.22
2022-12-08T05:22:59.710Z,100633.47
2022-12-08T05:23:31.262Z,100640.19
2022-12-08T05:24:02.923Z,100636.91
2022-12-08T05:24:34.604Z,100642.16
2022-12-08T05:25:06.533Z,100639.03
2022-12-08T05:25:38.148Z,100642.16
2022-12-08T05:26:09.642Z,100646.44
2022-12-08T05:26:41.103Z,100640.53
2022-12-08T05:27:12.573Z,100637.91
2022-12-08T05:27:44.139Z,100642.47
2022-12-08T05:28:40.204Z,100638.38
2022-12-08T05:29:07.019Z,100634.59
2022-12-08T05:29:38.632Z,100637.22
2022-12-08T05:30:10.424Z,100634.44
2022-12-08T05:30:41.979Z,100638.88
2022-12-08T05:31:14.973Z,100630.66
2022-12-08T05:31:46.541Z,100638.38
2022-12-08T05:32:18.029Z,100634.75
2022-12-08T05:32:49.477Z,100636.56
2022-12-08T05:33:21.023Z,100642.81
2022-12-08T05:33:53.242Z,100638.88
2022-12-08T05:34:24.845Z,100644.44
2022-12-08T05:34:56.349Z,100632.81
2022-12-08T05:35:27.834Z,100638.72
2022-12-08T05:35:59.428Z,100634.63
2022-12-08T05:36:30.912Z,100636.25
2022-12-08T05:37:02.498Z,100636.25
2022-12-08T05:37:34.031Z,100627.56
2022-12-08T05:38:06.027Z,100627.72
2022-12-08T05:38:37.615Z,100625.75
2022-12-08T05:39:12.779Z,100625.41
2022-12-08T05:39:44.262Z,100627.03
2022-12-08T05:40:15.939Z,100629.03
2022-12-08T05:40:47.517Z,100622.13
2022-12-08T05:41:20.952Z,100634.28
2022-12-08T05:41:52.478Z,100623.44
2022-12-08T05:42:25.155Z,100629.66
2022-12-08T05:42:56.909Z,100627.22
2022-12-08T05:43:29.004Z,100623.28
2022-12-08T05:44:00.464Z,100624.09
2022-12-08T05:44:31.977Z,100619.19
2022-12-08T05:45:04.373Z,100616.38
2022-12-08T05:45:35.923Z,100621.81
2022-12-08T05:46:08.262Z,100625.44
2022-12-08T05:46:39.800Z,100630.69
2022-12-08T05:47:11.274Z,100629.06
2022-12-08T05:47:42.824Z,100630.69
2022-12-08T05:48:14.475Z,100634.13
2022-12-08T05:48:45.986Z,100630.84
2022-12-08T05:49:18.193Z,100624.44
2022-12-08T05:49:49.926Z,100629.22
2022-12-08T05:50:21.394Z,100629.69
2022-12-08T05:50:52.912Z,100629.69
2022-12-08T05:51:24.620Z,100625.59
2022-12-08T05:51:56.060Z,100633.31
2022-12-08T05:52:27.564Z,100633.31
2022-12-08T05:52:59.034Z,100632.34
2022-12-08T05:53:30.767Z,100626.72
2022-12-08T05:54:02.561Z,100622.81
2022-12-08T05:54:34.091Z,100628.88
2022-12-08T05:55:05.989Z,100619.53
2022-12-08T05:55:37.484Z,100632.84
2022-12-08T05:56:09.244Z,100635.28
2022-12-08T05:56:40.799Z,100627.59
2022-12-08T05:57:12.426Z,100626.75
2022-12-08T05:57:43.892Z,100633.66
2022-12-08T05:58:18.191Z,100633.34
2022-12-08T05:58:49.717Z,100640.75
2022-12-08T05:59:21.293Z,100631.38
2022-12-08T05:59:52.854Z,100630.56
2022-12-08T06:00:24.315Z,100636.97
2022-12-08T06:00:55.776Z,100630.03
2022-12-08T06:01:29.402Z,100633.66
2022-12-08T06:02:01.002Z,100628.56
2022-12-08T06:02:32.702Z,100634.97
2022-12-08T06:03:04.497Z,100632.19
2022-12-08T06:03:36.413Z,100634.00
2022-12-08T06:04:08.858Z,100622.31
2022-12-08T06:04:40.580Z,100624.94
2022-12-08T06:05:12.141Z,100631.69
2022-12-08T06:05:44.993Z,100631.34
2022-12-08T06:06:16.602Z,100631.34
2022-12-08T06:06:48.224Z,100631.69
2022-12-08T06:07:19.682Z,100632.66
2022-12-08T06:07:51.206Z,100633.31
2022-12-08T06:08:22.766Z,100634.13
2022-12-08T06:08:54.652Z,100626.44
2022-12-08T06:09:26.157Z,100624.63
2022-12-08T06:09:57.646Z,100626.75
2022-12-08T06:10:29.361Z,100630.38
2022-12-08T06:11:00.957Z,100630.38
2022-12-08T06:11:33.632Z,100626.44
2022-12-08T06:12:05.442Z,100627.59
2022-12-08T06:12:37.020Z,100630.03
2022-12-08T06:13:08.634Z,100632.03
2022-12-08T06:13:40.118Z,100632.03
2022-12-08T06:14:12.327Z,100627.44
2022-12-08T06:14:43.869Z,100618.09
2022-12-08T06:15:15.465Z,100631.38
2022-12-08T06:15:46.960Z,100624.66
2022-12-08T06:16:19.314Z,100620.88
2022-12-08T06:16:50.919Z,100625.81
2022-12-08T06:17:22.399Z,100626.13
2022-12-08T06:17:53.902Z,100627.78
2022-12-08T06:18:29.691Z,100623.97
2022-12-08T06:19:04.125Z,100626.78
2022-12-08T06:19:35.760Z,100623.50
2022-12-08T06:20:08.072Z,100621.84
2022-12-08T06:20:39.552Z,100626.78
2022-12-08T06:21:13.142Z,100623.00
2022-12-08T06:21:44.718Z,100620.38
2022-12-08T06:22:16.292Z,100628.75
2022-12-08T06:22:47.767Z,100631.38
2022-12-08T06:23:19.223Z,100618.75
2022-12-08T06:23:52.994Z,100623.50
2022-12-08T06:24:24.562Z,100617.94
2022-12-08T06:24:56.130Z,100620.22
2022-12-08T06:25:27.726Z,100625.47
2022-12-08T06:26:13.105Z,100619.09
2022-12-08T06:26:44.605Z,100620.91
2022-12-08T06:27:34.934Z,100620.91
2022-12-08T06:28:07.228Z,100622.38
2022-12-08T06:28:39.346Z,100620.06
2022-12-08T06:29:10.808Z,100624.50
2022-12-08T06:29:42.543Z,100624.50